ADDS METAR Data INFO
IDs: Format: Raw Decoded Include TAF

Data at: 1532 UTC 18 Jun 2018

KLCG 181515Z AUTO 01005KT 10SM BKN010 OVC039 24/23 A2995 RMK AO2 T02350230
KLCG 181455Z AUTO 01004KT 10SM SCT010 OVC041 24/23 A2995 RMK AO2 60001 T02350230
KLCG 181435Z AUTO 00000KT 10SM OVC041 24/23 A2995 RMK AO2 T02370231
KLCG 181415Z AUTO 00000KT 10SM BKN041 BKN120 23/23 A2994 RMK AO2 T02340228
KLCG 181355Z AUTO 12004KT 10SM SCT041 BKN120 23/23 A2994 RMK AO2 T02300225
KLCG 181335Z AUTO 13004KT 10SM SCT120 23/22 A2993 RMK AO2 T02250219
KLCG 181315Z AUTO 12005KT 10SM SCT110 22/22 A2993 RMK AO2 T02230217
KLCG 181255Z AUTO 13006KT 10SM SCT110 22/22 A2994 RMK AO2 P0001 T02210215
KLCG 181235Z AUTO 09004KT 10SM SCT095 SCT120 22/21 A2993 RMK AO2 P0001 T02190212
KLCG 181215Z AUTO 07005KT 10SM RA SCT050 SCT070 BKN100 22/21 A2993 RMK AO2 P0001 T02170211
KLCG 181155Z AUTO 09003KT 10SM -RA BKN110 22/21 A2993 RMK AO2 P0007 60020 70029 T02150208 10215 20210
KLCG 181135Z AUTO 00000KT 7SM RA BKN095 OVC110 22/21 A2994 RMK AO2 P0005 T02150208
KLCG 181115Z AUTO 00000KT 5SM RA SCT050 BKN085 OVC120 22/21 A2994 RMK AO2 P0001 T02150208
KLCG 181055Z AUTO 00000KT 10SM BKN060 BKN080 OVC110 22/21 A2994 RMK AO2 T02150208
KLCG 181035Z AUTO 00000KT 10SM OVC060 22/21 A2993 RMK AO2 T02150208
KLCG 181015Z AUTO 00000KT 10SM BKN060 OVC070 21/21 A2992 RMK AO2 T02120206
KLCG 180955Z AUTO 10007KT 10SM BKN070 OVC075 21/21 A2991 RMK AO2 P0001 T02130207
KLCG 180935Z AUTO 11007KT 10SM BKN070 BKN095 OVC120 21/21 A2991 RMK AO2 P0001 T02110205
KLCG 180915Z AUTO 09005KT 10SM SCT070 SCT095 BKN120 21/21 A2991 RMK AO2 LTG DSNT NE T02110205
KLCG 180855Z AUTO 06005KT 10SM BKN060 BKN095 21/21 A2992 RMK AO2 LTG DSNT NE P0009 60012 T02110205
KLCG 180835Z AUTO 00000KT 10SM -RA SCT026 SCT050 OVC060 21/21 A2993 RMK AO2 P0009 T02100205
KLCG 180815Z AUTO 00000KT 4SM -RA SCT016 BKN060 OVC090 21/21 A2993 RMK AO2 P0005 T02110205
KLCG 180755Z AUTO 00000KT 10SM RA BKN010 BKN033 OVC065 21/21 A2994 RMK AO2 P0002 T02100205
KLCG 180735Z AUTO 30007KT 10SM -RA SCT010 BKN050 OVC065 21/21 A2994 RMK AO2 P0001 T02100205
KLCG 180715Z AUTO 31005KT 10SM SCT010 BKN065 BKN075 21/21 A2993 RMK AO2 T02100205
KLCG 180655Z AUTO 33003KT 10SM SCT075 OVC090 21/21 A2991 RMK AO2 P0001 T02120206
KLCG 180635Z AUTO 00000KT 10SM -RA SCT044 SCT050 OVC100 21/21 A2991 RMK AO2 P0001 T02130207
KLCG 180615Z AUTO 00000KT 10SM -RA BKN044 BKN050 OVC065 22/21 A2992 RMK AO2 LTG DSNT N P0001 T02150208
KLCG 180555Z AUTO 06003KT 10SM -RA SCT065 BKN075 OVC090 22/21 A2991 RMK AO2 P0002 60009 T02150209 10305 20215 403120215
KLCG 180535Z AUTO 00000KT 10SM -RA SCT050 BKN090 OVC120 22/21 A2990 RMK AO2 P0002 T02150210
KLCG 180515Z AUTO 00000KT 10SM RA SCT032 BKN080 OVC085 22/21 A2991 RMK AO2 T02170211
KLCG 180455Z AUTO 00000KT 3SM RA SCT042 SCT060 OVC070 22/21 A2990 RMK AO2 P0006 T02180212
KLCG 180435Z AUTO 00000KT 10SM BKN070 OVC090 22/22 A2990 RMK AO2 LTG DSNT NE P0001 T02200215
KLCG 180415Z AUTO 01004KT 10SM -RA SCT055 BKN070 OVC085 22/22 A2990 RMK AO2 P0001 T02200215
KLCG 180355Z AUTO 04004KT 10SM -RA BKN070 BKN085 BKN110 22/22 A2989 RMK AO2 LTG DSNT N T02210216
KLCG 180335Z AUTO 36007KT 10SM -DZ BKN070 OVC085 23/22 A2988 RMK AO2 T02300216
KLCG 180315Z AUTO 34011G23KT 10SM SCT041 BKN070 OVC085 24/21 A2988 RMK AO2 T02380207
KLCG 180255Z AUTO 34013G22KT 10SM SCT027 BKN070 OVC090 24/24 A2988 RMK AO2 LTG DSNT N T02430237
KLCG 180235Z AUTO 33012G15KT 10SM BKN090 27/26 A2985 RMK AO2 LTG DSNT N AND NW T02730259
KLCG 180215Z AUTO 17005KT 10SM CLR 27/26 A2982 RMK AO2 LTG DSNT N AND NW T02720258
KLCG 180155Z AUTO 16007KT 10SM CLR 28/26 A2981 RMK AO2 LTG DSNT N T02750258
KLCG 180135Z AUTO 17007KT 10SM CLR 28/25 A2980 RMK AO2 T02830251
KLCG 180115Z AUTO 15009KT 10SM CLR 29/25 A2980 RMK AO2 LTG DSNT N AND NW T02880248
KLCG 180055Z AUTO 15009KT 10SM CLR 29/25 A2980 RMK AO2 LTG DSNT N T02940247
KLCG 180035Z AUTO 15012KT 10SM SCT060 SCT070 SCT100 29/24 A2980 RMK AO2 LTG DSNT N T02910241
KLCG 180015Z AUTO 16012KT 10SM SCT050 SCT070 SCT100 30/24 A2981 RMK AO2 LTG DSNT N T02970235
KLCG 172355Z AUTO 14014KT 10SM SCT050 SCT065 SCT095 31/24 A2981 RMK AO2 LTG DSNT N T03060235 10312 20262
KLCG 172335Z AUTO 16010KT 10SM SCT060 BKN065 OVC095 30/24 A2981 RMK AO2 T03040240
KLCG 172315Z AUTO 16012KT 10SM SCT049 SCT055 BKN070 30/24 A2981 RMK AO2 T03040235
KLCG 172255Z AUTO 16012KT 10SM SCT055 30/24 A2982 RMK AO2 T03030236
KLCG 172235Z AUTO 18012KT 10SM SCT042 SCT048 SCT065 30/23 A2982 RMK AO2 T03020234
KLCG 172215Z AUTO 18016G22KT 10SM SCT044 BKN050 BKN065 31/23 A2983 RMK AO2 T03070225
KLCG 172155Z AUTO 20018G24KT 10SM BKN044 BKN050 31/22 A2983 RMK AO2 LTG DSNT SE T03090224
KLCG 172135Z AUTO 20017G22KT 10SM SCT044 SCT050 31/22 A2984 RMK AO2 LTG DSNT SE T03050222
KLCG 172115Z AUTO 19016KT 10SM CLR 30/22 A2984 RMK AO2 T02950219
KLCG 172055Z AUTO 18015G20KT 10SM CLR 30/22 A2984 RMK AO2 LTG DSNT SE T03000221
KLCG 172035Z AUTO 20013KT 10SM CLR 29/21 A2984 RMK AO2 T02940213
KLCG 172015Z AUTO 18011G23KT 10SM SCT080 SCT090 29/23 A2984 RMK AO2 T02940227
KLCG 171955Z AUTO 16017G21KT 10SM SCT075 BKN100 29/23 A2986 RMK AO2 T02860228
KLCG 171935Z AUTO 18017G22KT 10SM SCT075 SCT090 BKN110 29/22 A2986 RMK AO2 T02850217
KLCG 171915Z AUTO 17018G21KT 10SM SCT075 SCT090 SCT110 29/23 A2986 RMK AO2 T02860229
KLCG 171855Z AUTO 17015G19KT 10SM BKN090 BKN110 28/23 A2987 RMK AO2 T02780229
KLCG 171835Z AUTO 18015G18KT 10SM OVC100 27/23 A2988 RMK AO2 T02690227
KLCG 171815Z AUTO 19011KT 10SM OVC100 26/22 A2988 RMK AO2 T02630224
KLCG 171755Z AUTO 18011G17KT 10SM SCT034 SCT045 OVC100 27/23 A2988 RMK AO2 T02670230 10293 20242
KLCG 171735Z AUTO 19011G19KT 10SM -RA SCT033 BKN070 OVC100 26/23 A2988 RMK AO2 T02590229
KLCG 171715Z AUTO 21012KT 10SM SCT040 SCT080 BKN110 27/24 A2988 RMK AO2 T02670235
KLCG 171655Z AUTO 21019G23KT 10SM SCT032 SCT049 BKN110 27/22 A2988 RMK AO2 T02740224
KLCG 171635Z AUTO 20019G25KT 10SM CLR 28/22 A2986 RMK AO2 T02770215
KLCG 171615Z AUTO 20015G18KT 10SM CLR 28/21 A2985 RMK AO2 T02820210
KLCG 171555Z AUTO 20013G20KT 10SM CLR 29/21 A2984 RMK AO2 T02910214
KLCG 171535Z AUTO 22012KT 10SM CLR 29/21 A2984 RMK AO2 T02880210
KLCG 171515Z AUTO 21012KT 10SM CLR 28/22 A2984 RMK AO2 T02810218
KLCG 171455Z AUTO 21011KT 10SM CLR 28/21 A2984 RMK AO2 T02800214
KLCG 171435Z AUTO 21018G23KT 10SM SCT100 28/22 A2984 RMK AO2 T02840219
KLCG 171415Z AUTO 21015G18KT 10SM SCT100 27/23 A2984 RMK AO2 T02730227
KLCG 171355Z AUTO 21016G21KT 10SM CLR 27/23 A2983 RMK AO2 T02740227
KLCG 171335Z AUTO 21015G18KT 10SM CLR 27/23 A2983 RMK AO2 T02720231
KLCG 171315Z AUTO 20014KT 10SM CLR 26/24 A2982 RMK AO2 T02620235
KLCG 171255Z AUTO 19015KT 10SM SCT120 26/23 A2981 RMK AO2 T02600232
KLCG 171235Z AUTO 18012KT 10SM SCT120 25/24 A2982 RMK AO2 T02510235
KLCG 171215Z AUTO 18011G15KT 10SM SCT120 25/24 A2982 RMK AO2 T02500238
KLCG 171155Z AUTO 18011KT 10SM CLR 24/24 A2982 RMK AO2 T02420235 10280 20240
KLCG 171135Z AUTO 18009KT 10SM CLR 24/23 A2982 RMK AO2 T02400233
KLCG 171115Z AUTO 17011KT 10SM CLR 24/23 A2981 RMK AO2 T02400233
KLCG 171055Z AUTO 18011KT 10SM CLR 24/23 A2980 RMK AO2 T02430230
KLCG 171035Z AUTO 17012KT 10SM CLR 25/23 A2980 RMK AO2 T02450227
KLCG 171015Z AUTO 17011KT 10SM CLR 24/23 A2979 RMK AO2 T02410227
KLCG 170955Z AUTO 17010KT 10SM CLR 25/22 A2979 RMK AO2 T02480223
KLCG 170935Z AUTO 18011KT 10SM CLR 25/22 A2978 RMK AO2 T02520219
KLCG 170915Z AUTO 18012G17KT 10SM CLR 26/22 A2978 RMK AO2 T02560215
KLCG 170855Z AUTO 17013G19KT 10SM CLR 26/21 A2977 RMK AO2 T02610211
KLCG 170835Z AUTO 18013KT 10SM CLR 26/21 A2977 RMK AO2 T02610211
KLCG 170815Z AUTO 19013G19KT 10SM CLR 27/21 A2976 RMK AO2 T02650210
KLCG 170755Z AUTO 19014G20KT 10SM CLR 27/21 A2977 RMK AO2 T02660210
KLCG 170735Z AUTO 19014G19KT 10SM CLR 27/21 A2976 RMK AO2 T02670210
KLCG 170715Z AUTO 18015G23KT 10SM CLR 27/21 A2976 RMK AO2 T02700210
KLCG 170655Z AUTO 18014G19KT 10SM CLR 27/21 A2976 RMK AO2 T02720210
KLCG 170635Z AUTO 18014G19KT 10SM CLR 27/21 A2977 RMK AO2 T02740211
KLCG 170615Z AUTO 17013KT 10SM CLR 28/21 A2978 RMK AO2 T02750210
KLCG 170555Z AUTO 17016KT 10SM CLR 28/21 A2978 RMK AO2 T02800207 10331 20270 403500245
KLCG 170535Z AUTO 18012KT 10SM CLR 28/21 A2978 RMK AO2 T02770205
KLCG 170515Z AUTO 17011KT 10SM CLR 27/21 A2978 RMK AO2 T02740206
KLCG 170455Z AUTO 17011G14KT 10SM CLR 27/21 A2978 RMK AO2 T02700206
KLCG 170435Z AUTO 17010KT 10SM CLR 27/21 A2978 RMK AO2 T02720206
KLCG 170415Z AUTO 17010KT 10SM CLR 27/21 A2977 RMK AO2 T02740205
KLCG 170355Z AUTO 17009KT 10SM CLR 27/21 A2976 RMK AO2 T02710208
KLCG 170335Z AUTO 17007KT 10SM CLR 27/21 A2975 RMK AO2 T02740207